Time;durP1;ratioP1;P1;durP2;ratioP2;P2;SDS_P1;SDS_P2;PMS_P1;PMS_P2;Temp;Humidity;BMP_temperature;BMP_pressure;BME280_temperature;BME280_humidity;BME280_pressure;Samples;Min_cycle;Max_cycle;Signal;HPM_P1;HPM_P2
2024/01/27 00:00:00;;;;;;;6.40;3.47;;;;;;;8.94;51.65;99128.84;5088925;28;20288;-70
2024/01/27 00:02:26;;;;;;;5.43;3.70;;;;;;;8.81;50.98;99133.16;5088484;28;20825;-70
2024/01/27 00:04:51;;;;;;;10.90;6.63;;;;;;;8.63;51.93;99140.34;5089063;28;20428;-71
2024/01/27 00:07:17;;;;;;;19.20;13.40;;;;;;;8.57;51.94;99154.59;5079763;28;20216;-70
2024/01/27 00:09:43;;;;;;;13.13;8.80;;;;;;;8.71;51.33;99145.94;5080440;28;20201;-71
2024/01/27 00:12:08;;;;;;;7.53;4.43;;;;;;;8.66;52.22;99148.84;5042577;28;20178;-68
2024/01/27 00:14:38;;;;;;;6.70;4.20;;;;;;;8.53;51.90;99153.13;5088332;28;20944;-71
2024/01/27 00:17:03;;;;;;;8.40;3.70;;;;;;;8.62;52.53;99146.50;5092908;28;20200;-70
2024/01/27 00:19:28;;;;;;;7.57;4.83;;;;;;;8.74;52.06;99141.38;5082250;28;20448;-69
2024/01/27 00:21:54;;;;;;;12.60;7.10;;;;;;;8.70;51.95;99141.66;5100130;28;20192;-70
2024/01/27 00:24:19;;;;;;;8.33;4.93;;;;;;;8.62;51.29;99147.34;5094933;28;20238;-71
2024/01/27 00:26:45;;;;;;;8.63;4.83;;;;;;;8.39;51.96;99146.91;5087788;28;20838;-69
2024/01/27 00:29:10;;;;;;;12.13;5.80;;;;;;;8.29;51.94;99151.00;5090810;28;20269;-70
2024/01/27 00:31:36;;;;;;;13.27;6.20;;;;;;;8.40;51.73;99151.22;5089553;28;20193;-70
2024/01/27 00:34:01;;;;;;;12.50;6.60;;;;;;;8.45;52.08;99156.97;5090448;28;20217;-71
2024/01/27 00:36:27;;;;;;;9.23;6.10;;;;;;;8.29;51.87;99151.00;5088659;28;20297;-68
2024/01/27 00:38:52;;;;;;;10.93;5.67;;;;;;;7.99;52.09;99157.06;5074764;28;20265;-70
2024/01/27 00:41:18;;;;;;;10.57;5.70;;;;;;;8.12;52.10;99157.22;5093118;28;20205;-69
2024/01/27 00:43:43;;;;;;;10.40;5.83;;;;;;;8.22;51.71;99155.75;5091293;28;20184;-69
2024/01/27 00:46:09;;;;;;;9.60;4.70;;;;;;;8.33;52.51;99162.09;5093372;28;20189;-68
2024/01/27 00:48:34;;;;;;;5.83;4.80;;;;;;;8.06;52.27;99173.22;5088630;28;20232;-70
2024/01/27 00:51:00;;;;;;;9.87;5.60;;;;;;;8.05;52.45;99174.16;5096107;28;20215;-70
2024/01/27 00:53:25;;;;;;;10.27;6.13;;;;;;;8.01;52.80;99173.50;5093473;28;20269;-70
2024/01/27 00:55:51;;;;;;;11.70;6.53;;;;;;;7.96;52.29;99170.28;5084475;28;20574;-71
2024/01/27 00:58:16;;;;;;;10.70;6.10;;;;;;;7.91;52.69;99167.94;5077181;28;20271;-69
2024/01/27 01:00:42;;;;;;;11.17;5.73;;;;;;;7.94;52.73;99170.38;5081123;28;20626;-69
2024/01/27 01:03:07;;;;;;;13.23;5.80;;;;;;;7.91;52.46;99156.69;5094484;28;20207;-70
2024/01/27 01:05:33;;;;;;;11.57;4.93;;;;;;;8.04;52.89;99175.94;5093593;28;20174;-69
2024/01/27 01:07:58;;;;;;;6.63;4.53;;;;;;;8.02;52.48;99169.09;5099099;28;20292;-70
2024/01/27 01:10:24;;;;;;;12.13;4.20;;;;;;;8.03;52.77;99176.88;5092954;28;20231;-70
2024/01/27 01:12:49;;;;;;;10.77;5.47;;;;;;;8.10;52.23;99175.56;5100089;28;20185;-71
2024/01/27 01:15:15;;;;;;;7.57;5.57;;;;;;;8.17;52.39;99183.06;5094610;28;20237;-69
2024/01/27 01:17:41;;;;;;;6.00;4.83;;;;;;;8.17;52.41;99186.50;5088667;28;20188;-70
2024/01/27 01:20:07;;;;;;;9.43;5.23;;;;;;;7.93;52.91;99186.97;5093696;28;20205;-71
2024/01/27 01:22:32;;;;;;;8.00;4.93;;;;;;;7.93;52.57;99192.19;5092378;28;20426;-69
2024/01/27 01:24:58;;;;;;;7.97;4.20;;;;;;;7.86;52.37;99179.59;5094135;28;20455;-70
2024/01/27 01:27:23;;;;;;;6.10;3.60;;;;;;;7.84;52.45;99183.13;5103151;28;20192;-71
2024/01/27 01:29:49;;;;;;;6.50;3.70;;;;;;;7.89;52.55;99189.84;5090933;28;20576;-71
2024/01/27 01:32:15;;;;;;;6.23;3.60;;;;;;;7.79;52.99;99192.13;5090993;28;20185;-71
2024/01/27 01:34:40;;;;;;;5.63;3.63;;;;;;;7.60;53.37;99197.53;5096219;28;20181;-70
2024/01/27 01:37:06;;;;;;;8.73;4.50;;;;;;;7.79;52.70;99195.59;5089013;28;20423;-69
2024/01/27 01:39:31;;;;;;;6.83;3.53;;;;;;;7.81;52.83;99193.72;5080234;28;20209;-71
2024/01/27 01:41:57;;;;;;;7.83;3.37;;;;;;;7.95;52.18;99203.41;5091337;28;20197;-70
2024/01/27 01:44:29;;;;;;;5.87;4.30;;;;;;;7.87;51.71;99196.94;5090726;28;20189;-70
2024/01/27 01:46:55;;;;;;;7.67;4.40;;;;;;;7.55;52.92;99194.34;5089822;28;20230;-70
2024/01/27 01:49:21;;;;;;;5.60;4.23;;;;;;;7.52;52.65;99193.59;5079468;28;20814;-69
2024/01/27 01:51:46;;;;;;;7.83;4.00;;;;;;;7.45;52.91;99197.44;5101147;28;20416;-70
2024/01/27 01:54:12;;;;;;;5.80;3.20;;;;;;;7.46;53.05;99193.91;5081796;28;20551;-70
2024/01/27 01:56:37;;;;;;;5.17;3.10;;;;;;;7.65;53.23;99201.56;5099539;28;20209;-70
2024/01/27 01:59:03;;;;;;;5.07;3.37;;;;;;;7.68;52.27;99205.81;5103313;28;20473;-70
2024/01/27 02:01:28;;;;;;;4.90;3.10;;;;;;;7.61;53.02;99201.84;5099117;28;20270;-70
2024/01/27 02:03:54;;;;;;;6.63;3.23;;;;;;;7.62;52.57;99200.91;5084508;28;20341;-69
2024/01/27 02:06:20;;;;;;;4.67;3.03;;;;;;;7.55;52.21;99207.41;5090218;28;20193;-69
2024/01/27 02:08:45;;;;;;;7.90;3.10;;;;;;;7.39;52.46;99210.84;5072205;28;20428;-69
2024/01/27 02:11:10;;;;;;;8.13;3.17;;;;;;;7.49;52.63;99206.81;5092464;28;20269;-68
2024/01/27 02:13:36;;;;;;;6.83;3.90;;;;;;;7.33;53.09;99213.78;5063480;28;20198;-69
2024/01/27 02:16:01;;;;;;;4.87;3.33;;;;;;;7.30;53.16;99217.41;5071612;28;20216;-68
2024/01/27 02:18:27;;;;;;;4.70;3.10;;;;;;;7.22;53.93;99217.81;5093559;28;20193;-69
2024/01/27 02:20:52;;;;;;;4.77;3.03;;;;;;;7.38;53.13;99225.63;5097287;28;20692;-72
2024/01/27 02:23:18;;;;;;;4.67;2.73;;;;;;;7.45;53.01;99231.38;5102992;28;20207;-69
2024/01/27 02:25:43;;;;;;;4.47;2.80;;;;;;;7.41;52.73;99229.00;5091069;28;20231;-68
2024/01/27 02:28:09;;;;;;;3.67;2.60;;;;;;;7.42;52.53;99239.38;5088576;28;20185;-72
2024/01/27 02:30:34;;;;;;;5.67;2.97;;;;;;;7.26;52.85;99246.34;5093268;28;20655;-71
2024/01/27 02:33:00;;;;;;;6.13;2.97;;;;;;;7.28;53.15;99247.09;5090420;28;20200;-70
2024/01/27 02:35:25;;;;;;;4.63;2.73;;;;;;;7.30;52.96;99245.25;5093777;28;20208;-69
2024/01/27 02:37:51;;;;;;;9.63;3.03;;;;;;;7.29;52.77;99247.00;5089725;28;20217;-69
2024/01/27 02:40:16;;;;;;;6.30;2.67;;;;;;;7.31;52.44;99246.94;5093521;28;20208;-69
2024/01/27 02:42:42;;;;;;;5.77;2.93;;;;;;;7.39;52.73;99252.59;5099346;28;20646;-68
2024/01/27 02:45:08;;;;;;;6.10;2.47;;;;;;;7.43;52.45;99251.50;5096017;28;20696;-69
2024/01/27 02:47:33;;;;;;;5.90;2.50;;;;;;;7.42;52.65;99255.03;5087037;28;20212;-70
2024/01/27 02:49:59;;;;;;;10.20;2.50;;;;;;;7.31;52.59;99258.22;5099730;28;20289;-69
2024/01/27 02:52:24;;;;;;;10.07;2.80;;;;;;;7.42;52.44;99256.78;5095316;28;20264;-70
2024/01/27 02:54:49;;;;;;;7.83;3.50;;;;;;;7.26;52.02;99259.38;5090868;28;20202;-69
2024/01/27 02:57:16;;;;;;;3.30;2.50;;;;;;;7.25;52.40;99252.47;5090041;28;20192;-70
2024/01/27 02:59:47;;;;;;;4.40;2.80;;;;;;;7.04;53.10;99250.91;5061630;28;20205;-70
2024/01/27 03:02:13;;;;;;;12.20;3.43;;;;;;;7.14;52.82;99264.31;5070530;28;20447;-68
2024/01/27 03:04:38;;;;;;;8.43;3.07;;;;;;;7.14;52.64;99268.66;5089863;28;20977;-69
2024/01/27 03:07:04;;;;;;;8.10;2.93;;;;;;;7.05;53.34;99268.25;5085755;28;20182;-68
2024/01/27 03:09:30;;;;;;;6.57;2.90;;;;;;;6.93;53.05;99260.22;5086271;28;20209;-69
2024/01/27 03:11:56;;;;;;;3.40;2.57;;;;;;;7.07;53.14;99270.75;5105102;28;20420;-69
2024/01/27 03:14:22;;;;;;;6.97;3.00;;;;;;;6.99;53.58;99267.72;5055406;28;20181;-69
2024/01/27 03:16:48;;;;;;;4.80;3.10;;;;;;;7.04;53.09;99263.13;5099441;28;20469;-69
2024/01/27 03:19:13;;;;;;;7.70;2.97;;;;;;;7.13;52.88;99265.25;5089741;28;20209;-69
2024/01/27 03:21:38;;;;;;;6.60;2.90;;;;;;;7.14;52.52;99260.84;5091428;28;20930;-69
2024/01/27 03:24:04;;;;;;;5.60;3.23;;;;;;;7.14;52.85;99256.50;5081620;28;20265;-70
2024/01/27 03:26:30;;;;;;;6.30;3.13;;;;;;;7.08;52.92;99259.41;5089913;28;20184;-70
2024/01/27 03:28:55;;;;;;;6.30;3.37;;;;;;;7.10;52.18;99265.38;5091774;28;20206;-68
2024/01/27 03:31:20;;;;;;;5.33;3.03;;;;;;;7.12;52.30;99268.75;5095568;28;20269;-71
2024/01/27 03:33:46;;;;;;;7.03;3.20;;;;;;;7.11;52.56;99271.47;5086731;28;20182;-71
2024/01/27 03:36:13;;;;;;;6.30;2.53;;;;;;;7.13;52.67;99291.31;5089017;28;20205;-70
2024/01/27 03:38:39;;;;;;;4.50;2.90;;;;;;;6.89;53.16;99294.25;5088477;28;20482;-71
2024/01/27 03:41:04;;;;;;;4.77;3.10;;;;;;;6.80;53.05;99301.69;5075835;28;20459;-69
2024/01/27 03:43:31;;;;;;;5.30;2.70;;;;;;;6.80;53.40;99305.16;5081878;28;21090;-71
2024/01/27 03:45:57;;;;;;;6.33;3.30;;;;;;;6.73;53.04;99311.59;5087714;28;20181;-70
2024/01/27 03:48:22;;;;;;;5.57;2.47;;;;;;;6.88;53.33;99305.59;5094473;28;21139;-69
2024/01/27 03:50:48;;;;;;;5.57;3.20;;;;;;;6.98;53.21;99307.75;5088582;28;20423;-71
2024/01/27 03:53:13;;;;;;;7.83;2.90;;;;;;;7.04;53.28;99312.66;5099152;28;20263;-70
2024/01/27 03:55:39;;;;;;;6.30;3.00;;;;;;;6.81;53.45;99306.81;5095300;28;20343;-71
2024/01/27 03:58:04;;;;;;;5.27;2.90;;;;;;;6.93;53.68;99307.16;5090553;28;20723;-70
2024/01/27 04:00:33;;;;;;;5.80;3.17;;;;;;;6.81;53.39;99303.38;5094195;28;20253;-69
2024/01/27 04:03:01;;;;;;;9.20;3.27;;;;;;;6.80;53.33;99299.94;5077839;28;20550;-69
2024/01/27 04:05:28;;;;;;;5.40;2.80;;;;;;;6.85;53.60;99305.75;5091592;28;20954;-71
2024/01/27 04:07:54;;;;;;;6.00;2.70;;;;;;;6.90;53.38;99305.53;5096723;28;20420;-69
2024/01/27 04:10:20;;;;;;;6.57;3.37;;;;;;;6.80;53.27;99310.38;5102406;28;20523;-69
2024/01/27 04:12:45;;;;;;;6.30;3.07;;;;;;;6.83;53.08;99314.59;5090946;28;20236;-70
2024/01/27 04:15:11;;;;;;;6.80;3.30;;;;;;;6.84;52.78;99308.47;5070886;28;20483;-70
2024/01/27 04:17:40;;;;;;;11.07;3.03;;;;;;;6.65;52.76;99306.75;5079147;28;20188;-71
2024/01/27 04:20:06;;;;;;;5.33;3.50;;;;;;;6.76;53.19;99304.44;5074944;28;20201;-69
2024/01/27 04:22:33;;;;;;;7.70;3.80;;;;;;;6.83;52.67;99305.00;5090995;28;20538;-70
2024/01/27 04:24:58;;;;;;;6.93;3.90;;;;;;;6.69;52.47;99304.81;5077566;28;20787;-70
2024/01/27 04:27:24;;;;;;;7.20;3.60;;;;;;;6.78;52.77;99320.03;5079836;28;20423;-69
2024/01/27 04:29:49;;;;;;;5.47;3.03;;;;;;;6.79;52.53;99313.91;5088167;28;20201;-69
2024/01/27 04:32:15;;;;;;;4.97;3.03;;;;;;;6.72;53.21;99317.72;5090527;28;20216;-69
2024/01/27 04:34:40;;;;;;;9.23;3.40;;;;;;;6.65;53.44;99321.56;5080449;28;20188;-69
2024/01/27 04:37:06;;;;;;;9.00;2.90;;;;;;;6.55;53.62;99315.94;5091664;28;20919;-70
2024/01/27 04:39:31;;;;;;;10.60;3.27;;;;;;;6.55;53.61;99316.78;5070653;28;20290;-69
2024/01/27 04:41:57;;;;;;;5.93;3.53;;;;;;;6.60;53.66;99316.56;5074911;28;20705;-69
2024/01/27 04:44:22;;;;;;;7.30;3.00;;;;;;;6.55;53.44;99315.94;5086962;28;20177;-69
2024/01/27 04:46:48;;;;;;;9.57;3.07;;;;;;;6.51;53.57;99315.25;5085920;28;20235;-68
2024/01/27 04:49:14;;;;;;;4.70;3.00;;;;;;;6.58;53.22;99321.84;5095998;28;20204;-70
2024/01/27 04:51:40;;;;;;;4.47;2.97;;;;;;;6.60;53.31;99317.41;5069322;28;20178;-71
2024/01/27 04:54:05;;;;;;;7.77;3.40;;;;;;;6.53;52.84;99317.78;5091377;28;20430;-70
2024/01/27 04:56:31;;;;;;;6.23;3.40;;;;;;;6.53;53.35;99312.56;5087806;28;20201;-70
2024/01/27 04:58:56;;;;;;;12.07;3.47;;;;;;;6.53;53.33;99313.44;5092433;28;20284;-70
2024/01/27 05:01:22;;;;;;;4.73;3.13;;;;;;;6.50;53.45;99317.91;5086678;28;20238;-70
2024/01/27 05:03:47;;;;;;;7.53;3.13;;;;;;;6.28;53.27;99322.44;5083897;28;20182;-70
2024/01/27 05:06:13;;;;;;;6.43;2.93;;;;;;;6.24;53.25;99320.88;5095815;28;20629;-70
2024/01/27 05:08:38;;;;;;;11.20;3.10;;;;;;;6.21;53.66;99328.81;5072287;28;20236;-70
2024/01/27 05:11:04;;;;;;;5.50;3.10;;;;;;;6.27;53.29;99320.75;5094976;28;20878;-69
2024/01/27 05:13:29;;;;;;;4.90;3.20;;;;;;;6.18;52.81;99326.34;5092107;28;20173;-69
2024/01/27 05:15:55;;;;;;;5.80;3.03;;;;;;;6.12;53.17;99324.06;5095450;28;20213;-68
2024/01/27 05:18:20;;;;;;;5.00;3.30;;;;;;;6.09;53.45;99322.47;5087602;28;20205;-68
2024/01/27 05:20:46;;;;;;;11.67;3.53;;;;;;;6.15;53.51;99326.53;5088562;28;20201;-69
2024/01/27 05:23:11;;;;;;;6.03;3.00;;;;;;;6.18;53.47;99318.53;5089372;28;20189;-71
2024/01/27 05:25:37;;;;;;;6.00;3.50;;;;;;;6.09;53.56;99329.41;5082363;28;20681;-73
2024/01/27 05:28:02;;;;;;;6.90;3.20;;;;;;;5.93;54.00;99335.28;5071458;28;20870;-70
2024/01/27 05:30:28;;;;;;;5.73;3.20;;;;;;;6.13;53.92;99321.38;5090777;28;20651;-69
2024/01/27 05:32:53;;;;;;;7.03;2.87;;;;;;;6.26;53.68;99316.44;5095603;28;20185;-70
2024/01/27 05:35:19;;;;;;;6.83;3.07;;;;;;;6.30;53.23;99317.97;5088897;28;20287;-70
2024/01/27 05:37:44;;;;;;;8.00;3.50;;;;;;;6.21;52.83;99314.97;5089030;28;20927;-71
2024/01/27 05:40:10;;;;;;;5.10;3.13;;;;;;;6.13;53.09;99310.97;5078013;28;20819;-71
2024/01/27 05:42:36;;;;;;;5.27;3.70;;;;;;;6.21;53.18;99308.00;5090946;28;20186;-72
2024/01/27 05:45:01;;;;;;;8.40;3.70;;;;;;;6.17;53.34;99311.69;5086979;28;20471;-70
2024/01/27 05:47:27;;;;;;;7.70;3.10;;;;;;;6.08;53.18;99312.97;5019554;28;20190;-71
2024/01/27 05:49:52;;;;;;;9.80;3.83;;;;;;;6.05;53.45;99313.09;5093146;28;20193;-72
2024/01/27 05:52:18;;;;;;;4.40;3.23;;;;;;;6.19;53.33;99317.63;5082001;28;20181;-71
2024/01/27 05:54:43;;;;;;;8.77;3.73;;;;;;;6.04;52.83;99326.19;5091611;28;20189;-70
2024/01/27 05:57:08;;;;;;;5.63;3.20;;;;;;;5.90;53.30;99321.56;5089413;28;20181;-70
2024/01/27 05:59:34;;;;;;;5.37;3.53;;;;;;;5.91;53.67;99316.31;5097032;28;20794;-70
2024/01/27 06:01:59;;;;;;;6.50;3.50;;;;;;;6.02;52.93;99322.81;5095235;28;20265;-70
2024/01/27 06:04:25;;;;;;;9.27;3.07;;;;;;;5.88;53.48;99331.22;5071648;28;20189;-70
2024/01/27 06:06:50;;;;;;;6.03;3.60;;;;;;;5.95;53.39;99335.22;5091071;28;20235;-72
2024/01/27 06:09:16;;;;;;;6.30;3.70;;;;;;;6.03;53.15;99327.09;5092889;28;20236;-68
2024/01/27 06:11:41;;;;;;;7.43;3.90;;;;;;;5.95;53.18;99330.03;5091156;28;20184;-69
2024/01/27 06:14:07;;;;;;;4.63;3.17;;;;;;;6.01;53.67;99334.97;5096529;28;20186;-68
2024/01/27 06:16:32;;;;;;;4.10;3.30;;;;;;;6.04;53.07;99332.22;5093599;28;20732;-69
2024/01/27 06:18:58;;;;;;;4.13;3.00;;;;;;;6.09;53.00;99325.06;5081300;28;20212;-69
2024/01/27 06:21:23;;;;;;;7.03;3.80;;;;;;;6.07;52.77;99326.88;5092813;28;20843;-69
2024/01/27 06:23:49;;;;;;;5.80;3.30;;;;;;;5.92;53.21;99338.81;5082319;28;20189;-68
2024/01/27 06:26:14;;;;;;;8.50;3.60;;;;;;;5.64;54.25;99345.28;5089726;28;20170;-70
2024/01/27 06:28:40;;;;;;;6.83;4.57;;;;;;;5.68;53.77;99348.59;5073064;28;20201;-68
2024/01/27 06:31:07;;;;;;;5.20;3.90;;;;;;;5.75;53.83;99359.56;5090916;28;20228;-68
2024/01/27 06:33:34;;;;;;;8.20;3.80;;;;;;;5.86;53.61;99349.50;5090997;28;20263;-71
2024/01/27 06:36:00;;;;;;;5.10;3.90;;;;;;;5.75;54.03;99351.75;5072103;28;20498;-68
2024/01/27 06:38:27;;;;;;;8.70;3.47;;;;;;;5.77;53.58;99355.13;5092337;28;20436;-69
2024/01/27 06:40:52;;;;;;;6.00;3.93;;;;;;;5.77;54.02;99360.34;5090553;28;20269;-69
2024/01/27 06:43:18;;;;;;;6.13;3.47;;;;;;;5.79;53.71;99358.53;5083898;28;20507;-69
2024/01/27 06:45:43;;;;;;;6.63;3.90;;;;;;;5.72;53.41;99359.69;5092523;28;20177;-69
2024/01/27 06:48:09;;;;;;;8.03;3.33;;;;;;;5.59;53.85;99362.84;5090223;28;20249;-69
2024/01/27 06:50:34;;;;;;;7.17;3.50;;;;;;;5.59;54.16;99357.63;5093254;28;20326;-69
2024/01/27 06:53:00;;;;;;;6.17;3.50;;;;;;;5.61;54.10;99360.16;5089862;28;20181;-69
2024/01/27 06:55:26;;;;;;;7.27;3.87;;;;;;;5.61;53.62;99361.03;5086979;28;20204;-69
2024/01/27 06:57:51;;;;;;;5.40;3.53;;;;;;;5.59;54.51;99357.63;5094606;28;21014;-71
2024/01/27 07:00:18;;;;;;;5.30;3.37;;;;;;;5.75;54.06;99356.97;5099290;28;20209;-69
2024/01/27 07:02:43;;;;;;;5.60;4.20;;;;;;;5.84;53.89;99364.34;5092018;28;20189;-69
2024/01/27 07:05:09;;;;;;;7.57;4.17;;;;;;;5.89;53.93;99366.72;5083971;28;20423;-70
2024/01/27 07:07:35;;;;;;;12.40;4.13;;;;;;;5.92;53.34;99364.84;5100914;28;20190;-70
2024/01/27 07:10:01;;;;;;;8.77;4.30;;;;;;;5.84;53.62;99366.94;5089591;28;20197;-69
2024/01/27 07:12:26;;;;;;;7.80;3.63;;;;;;;5.79;53.00;99359.34;5094557;28;20185;-69
2024/01/27 07:14:52;;;;;;;10.70;4.30;;;;;;;5.79;53.65;99364.56;5087498;28;20426;-70
2024/01/27 07:17:18;;;;;;;10.60;4.40;;;;;;;5.89;52.67;99366.72;5065026;28;20693;-69
2024/01/27 07:19:43;;;;;;;8.50;4.23;;;;;;;5.82;53.26;99368.78;5071086;28;20225;-70
2024/01/27 07:22:09;;;;;;;5.63;3.90;;;;;;;5.68;53.17;99359.81;5073323;28;20722;-70
2024/01/27 07:24:35;;;;;;;9.37;4.17;;;;;;;5.53;54.15;99363.13;5089749;28;20865;-70
2024/01/27 07:27:01;;;;;;;7.07;3.93;;;;;;;5.53;54.06;99355.31;5095721;28;20181;-72
2024/01/27 07:29:27;;;;;;;10.70;5.10;;;;;;;5.54;54.16;99360.44;5081136;28;20193;-70
2024/01/27 07:31:52;;;;;;;7.43;3.90;;;;;;;5.58;53.76;99362.91;5089358;28;20177;-69
2024/01/27 07:34:18;;;;;;;5.90;3.40;;;;;;;5.43;53.85;99365.28;5091134;28;20423;-71
2024/01/27 07:36:44;;;;;;;9.60;4.30;;;;;;;5.47;54.07;99363.38;5075153;28;20213;-69
2024/01/27 07:39:09;;;;;;;12.30;4.40;;;;;;;5.47;54.15;99374.66;5088833;28;20213;-70
2024/01/27 07:41:35;;;;;;;9.37;4.87;;;;;;;5.62;53.47;99378.31;5070777;28;20265;-71
2024/01/27 07:44:10;;;;;;;7.40;4.10;;;;;;;5.69;54.01;99369.31;5096035;28;20261;-70
2024/01/27 07:46:37;;;;;;;7.73;4.27;;;;;;;5.76;54.00;99362.09;5068274;28;21148;-69
2024/01/27 07:49:03;;;;;;;9.50;4.50;;;;;;;5.63;53.75;99360.94;5088130;28;20898;-69
2024/01/27 07:51:29;;;;;;;11.33;4.90;;;;;;;5.67;54.17;99360.72;5071207;28;20459;-69
2024/01/27 07:53:54;;;;;;;10.30;4.33;;;;;;;5.64;54.15;99360.03;5070577;28;20420;-70
2024/01/27 07:56:20;;;;;;;17.50;5.07;;;;;;;5.62;54.29;99364.44;5051337;28;20225;-69
2024/01/27 07:58:45;;;;;;;18.53;10.40;;;;;;;5.59;54.38;99362.84;5082207;28;20197;-70
2024/01/27 08:01:15;;;;;;;143.90;66.30;;;;;;;5.66;54.96;99364.28;5082891;28;20190;-68
2024/01/27 08:03:40;;;;;;;303.93;135.33;;;;;;;5.69;54.49;99358.91;5091156;28;20651;-71
2024/01/27 08:06:09;;;;;;;179.77;85.90;;;;;;;5.89;54.73;99354.59;5093665;28;20420;-70
2024/01/27 08:08:34;;;;;;;60.37;31.43;;;;;;;6.14;54.16;99356.09;5095273;28;20212;-70
2024/01/27 08:11:00;;;;;;;34.60;18.83;;;;;;;6.44;54.11;99360.75;5071412;28;20420;-70
2024/01/27 08:13:25;;;;;;;36.00;19.13;;;;;;;6.67;53.82;99353.59;5089920;28;20646;-71
2024/01/27 08:15:50;;;;;;;16.97;9.10;;;;;;;6.86;53.39;99359.59;5091762;28;20240;-70
2024/01/27 08:18:16;;;;;;;12.90;5.87;;;;;;;7.06;52.69;99357.72;5088318;28;20209;-70
2024/01/27 08:20:41;;;;;;;21.40;9.63;;;;;;;7.27;52.43;99353.19;5083031;28;20265;-70
2024/01/27 08:23:08;;;;;;;13.10;8.23;;;;;;;7.52;52.18;99351.91;5079979;28;20182;-69
2024/01/27 08:25:33;;;;;;;25.40;16.90;;;;;;;8.00;51.45;99349.41;5098792;28;20192;-70
2024/01/27 08:27:59;;;;;;;26.40;14.80;;;;;;;8.33;50.67;99343.22;5088558;28;20419;-70
2024/01/27 08:30:24;;;;;;;26.43;11.70;;;;;;;8.55;50.27;99347.31;5093225;28;20204;-70
2024/01/27 08:32:50;;;;;;;25.20;13.37;;;;;;;8.79;49.86;99346.81;5094281;28;20222;-71
2024/01/27 08:35:15;;;;;;;15.70;10.97;;;;;;;9.09;49.25;99353.78;5090136;28;20292;-70
2024/01/27 08:37:40;;;;;;;12.37;8.50;;;;;;;9.36;48.37;99340.88;5088057;28;20260;-71
2024/01/27 08:40:07;;;;;;;13.70;7.63;;;;;;;9.71;48.64;99344.88;5074797;28;20694;-71
2024/01/27 08:42:32;;;;;;;15.70;8.50;;;;;;;10.14;48.13;99332.53;5099155;28;20257;-70
2024/01/27 08:44:58;;;;;;;11.70;7.80;;;;;;;10.39;47.49;99324.94;5087993;28;20541;-70
2024/01/27 08:47:23;;;;;;;14.23;6.87;;;;;;;10.66;46.49;99330.16;5059585;28;20266;-68
2024/01/27 08:49:49;;;;;;;10.53;6.87;;;;;;;10.93;46.64;99328.44;5083359;28;20209;-71
2024/01/27 08:52:14;;;;;;;14.23;6.70;;;;;;;11.26;46.49;99329.72;5082438;28;20189;-71
2024/01/27 08:54:40;;;;;;;17.97;9.40;;;;;;;11.51;44.35;99324.44;5074650;28;20181;-71
2024/01/27 08:57:06;;;;;;;15.50;8.67;;;;;;;12.00;44.75;99324.59;5080415;28;20314;-70
2024/01/27 08:59:32;;;;;;;12.83;6.13;;;;;;;12.18;42.84;99329.50;5080917;28;20494;-70
2024/01/27 09:01:57;;;;;;;8.50;5.37;;;;;;;12.26;41.68;99335.88;5030913;28;20189;-71
2024/01/27 09:04:22;;;;;;;11.00;4.93;;;;;;;12.22;41.96;99339.69;5094018;28;20190;-69
2024/01/27 09:06:48;;;;;;;14.93;5.53;;;;;;;12.37;42.65;99342.97;5085844;28;20268;-70
2024/01/27 09:09:14;;;;;;;9.37;5.27;;;;;;;12.59;41.97;99338.81;5094115;28;20209;-70
2024/01/27 09:11:39;;;;;;;13.80;4.90;;;;;;;12.60;41.56;99351.00;5084720;28;20174;-70
2024/01/27 09:14:07;;;;;;;9.27;4.50;;;;;;;12.50;40.36;99337.69;5085775;28;20179;-70
2024/01/27 09:16:32;;;;;;;7.23;4.70;;;;;;;12.46;41.41;99341.47;5087771;28;20361;-70
2024/01/27 09:18:58;;;;;;;8.20;3.97;;;;;;;12.77;41.20;99338.38;5095679;28;20648;-71
2024/01/27 09:21:28;;;;;;;9.47;5.07;;;;;;;12.79;40.74;99336.47;5096371;28;20183;-72
2024/01/27 09:23:54;;;;;;;9.90;4.50;;;;;;;13.25;40.99;99343.53;5090930;28;20177;-71
2024/01/27 09:26:20;;;;;;;11.40;4.40;;;;;;;13.57;40.37;99352.56;5091487;28;20466;-71
2024/01/27 09:28:53;;;;;;;8.00;4.40;;;;;;;13.52;40.78;99345.88;5090539;28;20470;-70
2024/01/27 09:31:25;;;;;;;9.63;4.30;;;;;;;14.38;39.64;99347.06;5093204;28;20181;-71
2024/01/27 09:33:52;;;;;;;18.40;4.97;;;;;;;14.52;38.15;99346.78;5084889;28;20426;-72
2024/01/27 09:36:18;;;;;;;9.57;4.23;;;;;;;14.69;38.07;99347.25;5072232;28;20542;-71
2024/01/27 09:38:43;;;;;;;9.60;4.40;;;;;;;14.38;37.48;99349.72;5088433;28;20468;-70
2024/01/27 09:41:10;;;;;;;8.73;4.60;;;;;;;14.58;37.02;99348.94;5089177;28;20972;-73
2024/01/27 09:43:37;;;;;;;9.00;4.40;;;;;;;14.35;37.33;99357.91;5070460;28;20658;-71
2024/01/27 09:46:03;;;;;;;5.93;4.30;;;;;;;14.48;38.23;99355.94;5066631;28;20420;-71
2024/01/27 09:48:29;;;;;;;8.80;4.37;;;;;;;14.46;37.81;99349.94;5089886;28;20493;-70
2024/01/27 09:50:58;;;;;;;13.03;4.73;;;;;;;14.83;38.17;99357.50;5096117;28;20184;-71
2024/01/27 09:53:23;;;;;;;7.10;4.13;;;;;;;14.93;37.07;99354.97;5088285;28;20499;-71
2024/01/27 09:55:50;;;;;;;11.53;3.70;;;;;;;15.05;37.02;99361.84;5089623;28;20984;-73
2024/01/27 09:58:15;;;;;;;12.20;4.00;;;;;;;15.36;37.35;99369.81;5072953;28;20187;-71
2024/01/27 10:00:41;;;;;;;11.67;3.67;;;;;;;15.57;36.42;99368.13;5077431;28;20498;-71
2024/01/27 10:03:07;;;;;;;8.60;4.17;;;;;;;15.40;35.81;99359.00;5087056;28;20178;-70
2024/01/27 10:05:33;;;;;;;8.10;4.00;;;;;;;15.69;36.50;99364.41;5079376;28;20427;-70
2024/01/27 10:07:59;;;;;;;8.57;4.73;;;;;;;15.96;36.28;99363.03;5081002;28;20475;-71
2024/01/27 10:10:24;;;;;;;6.53;3.00;;;;;;;16.02;35.17;99370.41;5076409;28;21084;-71
2024/01/27 10:12:53;;;;;;;10.93;3.60;;;;;;;16.14;35.68;99373.78;5094094;28;20260;-71
2024/01/27 10:15:22;;;;;;;10.23;3.17;;;;;;;16.42;34.77;99366.88;5092057;28;20204;-71
2024/01/27 10:17:48;;;;;;;12.40;3.63;;;;;;;16.59;33.85;99362.72;5082917;28;20919;-71
2024/01/27 10:20:15;;;;;;;8.27;2.90;;;;;;;17.01;34.91;99358.97;5087448;28;20457;-70
2024/01/27 10:22:42;;;;;;;8.00;2.80;;;;;;;17.44;34.57;99358.63;5092564;28;20182;-71
2024/01/27 10:25:08;;;;;;;8.93;2.80;;;;;;;17.50;32.87;99363.34;5094619;28;20511;-71
2024/01/27 10:27:33;;;;;;;14.10;3.00;;;;;;;17.39;33.66;99364.34;5089272;28;20412;-70
2024/01/27 10:29:59;;;;;;;6.00;3.10;;;;;;;17.49;32.79;99369.63;5085348;28;20500;-70
2024/01/27 10:32:24;;;;;;;7.20;2.60;;;;;;;17.55;32.78;99360.28;5086270;28;20174;-69
2024/01/27 10:35:01;;;;;;;7.10;3.23;;;;;;;16.66;33.44;99364.81;5072924;28;20185;-71
2024/01/27 10:37:26;;;;;;;7.03;2.90;;;;;;;16.71;33.71;99358.13;5091558;28;20180;-68
2024/01/27 10:40:00;;;;;;;7.43;2.93;;;;;;;16.93;33.28;99368.59;5086343;28;20440;-70
2024/01/27 10:42:26;;;;;;;15.03;3.00;;;;;;;16.98;32.91;99364.56;5064735;28;20210;-70
2024/01/27 10:44:53;;;;;;;11.33;4.17;;;;;;;16.93;33.64;99350.88;5064537;28;20717;-70
2024/01/27 10:47:20;;;;;;;9.20;5.20;;;;;;;17.09;33.55;99341.53;5067182;28;20423;-72
2024/01/27 10:49:47;;;;;;;8.73;2.87;;;;;;;17.06;32.97;99340.03;5087927;28;20439;-75
2024/01/27 10:52:15;;;;;;;16.30;5.83;;;;;;;17.22;32.77;99331.47;5086467;28;20432;-73
2024/01/27 10:54:41;;;;;;;13.37;5.00;;;;;;;16.86;32.70;99337.34;5077132;28;20463;-75
2024/01/27 10:57:07;;;;;;;12.23;4.50;;;;;;;17.17;32.85;99325.75;5069471;28;20466;-74
2024/01/27 10:59:34;;;;;;;10.13;4.60;;;;;;;17.02;32.56;99325.38;5071669;28;20447;-75
2024/01/27 11:02:00;;;;;;;10.80;6.63;;;;;;;17.30;32.88;99310.38;5049711;28;20420;-73
2024/01/27 11:04:26;;;;;;;11.50;4.60;;;;;;;17.13;31.98;99327.06;5076540;28;20431;-73
2024/01/27 11:06:52;;;;;;;11.60;3.70;;;;;;;17.14;32.47;99318.94;5077464;28;20247;-74
2024/01/27 11:09:18;;;;;;;7.67;3.60;;;;;;;17.25;32.49;99319.75;5076607;28;20231;-74
2024/01/27 11:11:45;;;;;;;7.10;3.10;;;;;;;17.27;31.96;99315.16;5090680;28;20257;-75
2024/01/27 11:14:11;;;;;;;11.30;4.00;;;;;;;16.96;32.62;99308.25;5068047;28;20496;-74
2024/01/27 11:16:43;;;;;;;10.90;4.00;;;;;;;17.31;32.27;99309.41;5094167;28;20464;-73
2024/01/27 11:19:10;;;;;;;12.57;3.20;;;;;;;17.49;32.60;99298.06;5086495;28;20228;-75
2024/01/27 11:21:36;;;;;;;10.40;4.40;;;;;;;17.86;32.10;99291.03;5080765;28;20428;-74
2024/01/27 11:24:13;;;;;;;7.70;3.80;;;;;;;17.84;31.34;99296.50;5097232;28;20484;-74
2024/01/27 11:26:38;;;;;;;8.60;3.73;;;;;;;17.92;31.69;99290.44;5088826;28;20208;-71
2024/01/27 11:29:09;;;;;;;10.27;3.20;;;;;;;17.93;31.32;99287.63;5091295;28;20475;-71